Time;durP1;ratioP1;P1;durP2;ratioP2;P2;SDS_P1;SDS_P2;PMS_P1;PMS_P2;Temp;Humidity;BMP_temperature;BMP_pressure;BME280_temperature;BME280_humidity;BME280_pressure;Samples;Min_cycle;Max_cycle;Signal;HPM_P1;HPM_P2
2024/02/11 00:02:05;;;;;;;30.67;12.37;;;;;;;-11.42;48.94;100463.63;4768088;29;20070;-66
2024/02/11 00:04:31;;;;;;;25.43;10.70;;;;;;;-11.54;49.59;100466.81;4768657;29;20141;-64
2024/02/11 00:06:58;;;;;;;28.20;11.97;;;;;;;-11.54;49.17;100470.97;4766950;29;20039;-64
2024/02/11 00:09:24;;;;;;;24.70;10.90;;;;;;;-11.61;49.91;100456.97;4783616;29;20050;-65
2024/02/11 00:11:51;;;;;;;29.80;10.70;;;;;;;-11.33;50.46;100454.38;4785789;29;20039;-63
2024/02/11 00:14:19;;;;;;;29.20;10.67;;;;;;;-11.02;50.22;100449.56;4782866;29;20051;-65
2024/02/11 00:16:46;;;;;;;24.77;11.13;;;;;;;-10.92;50.12;100447.06;4783531;29;20039;-63
2024/02/11 00:19:13;;;;;;;28.07;10.13;;;;;;;-10.97;49.50;100458.38;4783006;29;20070;-61
2024/02/11 00:21:39;;;;;;;25.27;9.83;;;;;;;-11.41;49.00;100423.56;4798790;29;20537;-63
2024/02/11 00:24:06;;;;;;;29.53;10.17;;;;;;;-11.34;49.63;100452.63;4767660;29;20051;-64
2024/02/11 00:26:33;;;;;;;23.43;10.03;;;;;;;-11.77;50.15;100416.13;4783115;29;20047;-65
2024/02/11 00:28:59;;;;;;;25.20;10.27;;;;;;;-11.71;49.85;100452.75;4769383;29;20062;-64
2024/02/11 00:31:26;;;;;;;27.73;11.60;;;;;;;-12.18;49.84;100410.06;4783829;29;20406;-68
2024/02/11 00:33:56;;;;;;;26.20;9.10;;;;;;;-11.85;50.22;100443.06;4765019;29;20039;-62
2024/02/11 00:36:22;;;;;;;30.77;11.60;;;;;;;-12.04;49.77;100438.06;4782933;29;20413;-63
2024/02/11 00:38:48;;;;;;;22.60;9.60;;;;;;;-12.04;50.26;100440.56;4767287;29;20043;-65
2024/02/11 00:41:14;;;;;;;27.60;10.80;;;;;;;-12.18;50.89;100414.22;4783895;29;20054;-65
2024/02/11 00:43:43;;;;;;;25.70;10.83;;;;;;;-12.17;51.19;100419.34;4783428;29;20173;-65
2024/02/11 00:46:09;;;;;;;27.63;10.03;;;;;;;-11.96;50.98;100417.88;4782656;29;20046;-63
2024/02/11 00:48:35;;;;;;;24.33;9.90;;;;;;;-11.72;51.64;100432.50;4780974;29;20054;-64
2024/02/11 00:51:01;;;;;;;23.37;10.30;;;;;;;-11.71;51.04;100422.63;4780821;29;20100;-64
2024/02/11 00:53:27;;;;;;;23.90;9.63;;;;;;;-11.37;51.30;100429.75;4778879;29;20088;-64
2024/02/11 00:55:53;;;;;;;24.63;10.40;;;;;;;-11.23;51.64;100415.88;4783487;29;20046;-63
2024/02/11 00:58:19;;;;;;;20.97;9.33;;;;;;;-11.28;51.00;100428.03;4768762;29;20093;-62
2024/02/11 01:00:45;;;;;;;24.63;11.40;;;;;;;-11.31;51.04;100402.63;4766179;29;20141;-63
2024/02/11 01:03:14;;;;;;;26.27;10.90;;;;;;;-11.13;50.72;100408.41;4778158;29;20092;-63
2024/02/11 01:05:42;;;;;;;25.60;10.57;;;;;;;-11.23;49.35;100421.78;4776309;29;20567;-63
2024/02/11 01:08:12;;;;;;;23.70;10.30;;;;;;;-11.50;49.85;100418.59;4782114;29;20050;-63
2024/02/11 01:10:38;;;;;;;22.13;9.80;;;;;;;-11.93;49.58;100402.22;4767191;29;20065;-64
2024/02/11 01:13:05;;;;;;;21.73;9.67;;;;;;;-12.08;50.36;100388.31;4783286;29;20051;-63
2024/02/11 01:15:31;;;;;;;20.77;9.67;;;;;;;-11.81;50.61;100420.00;4782402;29;20082;-64
2024/02/11 01:17:58;;;;;;;20.77;9.67;;;;;;;-11.84;51.00;100417.22;4767834;29;20112;-63
2024/02/11 01:20:24;;;;;;;18.90;9.13;;;;;;;-11.86;50.79;100424.63;4792932;29;20199;-62
2024/02/11 01:22:50;;;;;;;24.00;10.10;;;;;;;-12.07;51.75;100375.03;4751026;29;20066;-64
2024/02/11 01:25:20;;;;;;;23.97;9.67;;;;;;;-11.92;51.05;100393.94;4765394;29;20419;-64
2024/02/11 01:27:47;;;;;;;19.40;9.00;;;;;;;-11.99;51.23;100391.63;4752446;29;20047;-63
2024/02/11 01:30:14;;;;;;;27.97;9.97;;;;;;;-11.81;51.68;100415.00;4760815;29;20035;-64
2024/02/11 01:32:40;;;;;;;23.20;9.57;;;;;;;-11.72;52.20;100379.75;4767826;29;20054;-63
2024/02/11 01:35:07;;;;;;;19.23;9.00;;;;;;;-11.51;50.99;100380.78;4792181;29;20054;-64
2024/02/11 01:37:34;;;;;;;20.50;8.70;;;;;;;-11.48;51.14;100397.75;4794237;29;21527;-65
2024/02/11 01:40:00;;;;;;;24.67;9.73;;;;;;;-11.35;51.19;100393.06;4767078;29;20526;-64
2024/02/11 01:42:26;;;;;;;23.57;10.07;;;;;;;-11.20;51.15;100399.44;4791771;29;20531;-60
2024/02/11 01:44:54;;;;;;;24.73;8.93;;;;;;;-11.37;51.08;100392.06;4782066;29;20047;-64
2024/02/11 01:47:20;;;;;;;20.87;9.67;;;;;;;-11.39;51.99;100365.91;4792244;29;20511;-64
2024/02/11 01:49:47;;;;;;;24.10;9.83;;;;;;;-11.03;51.80;100400.03;4779311;29;20436;-63
2024/02/11 01:52:14;;;;;;;24.87;9.60;;;;;;;-10.99;51.10;100393.63;4751717;29;20100;-63
2024/02/11 01:54:41;;;;;;;20.40;9.27;;;;;;;-11.18;50.71;100366.88;4767552;29;20046;-63
2024/02/11 01:57:07;;;;;;;19.90;9.23;;;;;;;-10.94;50.61;100390.78;4780706;29;20088;-64
2024/02/11 01:59:38;;;;;;;25.10;10.00;;;;;;;-11.17;50.81;100350.19;4776619;29;20119;-64
2024/02/11 02:02:13;;;;;;;20.73;9.00;;;;;;;-10.99;51.29;100369.38;4793535;29;20047;-65
2024/02/11 02:04:39;;;;;;;25.20;10.20;;;;;;;-11.08;49.59;100374.50;4793977;29;20491;-62
2024/02/11 02:07:05;;;;;;;20.90;8.53;;;;;;;-11.31;50.26;100369.09;4778994;29;20039;-65
2024/02/11 02:09:32;;;;;;;22.17;9.30;;;;;;;-11.21;50.48;100386.72;4791107;29;20046;-63
2024/02/11 02:12:02;;;;;;;27.00;8.57;;;;;;;-11.39;50.56;100386.03;4775954;29;20043;-64
2024/02/11 02:14:28;;;;;;;19.87;8.67;;;;;;;-11.38;50.63;100365.16;4793611;29;20047;-61
2024/02/11 02:16:55;;;;;;;20.37;9.43;;;;;;;-11.35;50.75;100370.44;4792890;29;20046;-62
2024/02/11 02:19:21;;;;;;;20.13;9.13;;;;;;;-11.42;50.24;100360.63;4781670;29;20067;-63
2024/02/11 02:21:49;;;;;;;21.63;8.77;;;;;;;-11.35;50.87;100376.34;4776676;29;20043;-64
2024/02/11 02:24:16;;;;;;;25.63;9.27;;;;;;;-11.66;48.97;100397.91;4793398;29;20074;-63
2024/02/11 02:26:46;;;;;;;23.10;9.10;;;;;;;-11.78;50.32;100392.66;4767174;29;20568;-63
2024/02/11 02:29:12;;;;;;;19.83;9.43;;;;;;;-11.83;50.91;100404.81;4778037;29;20082;-63
2024/02/11 02:31:38;;;;;;;19.97;8.60;;;;;;;-11.73;50.92;100383.91;4763649;29;20066;-63
2024/02/11 02:34:04;;;;;;;19.83;8.83;;;;;;;-11.46;51.36;100404.66;4792640;29;20047;-63
2024/02/11 02:36:31;;;;;;;21.10;8.63;;;;;;;-11.35;51.71;100401.50;4781027;29;20071;-65
2024/02/11 02:38:57;;;;;;;21.10;8.93;;;;;;;-11.39;51.12;100391.03;4790690;29;20051;-63
2024/02/11 02:41:23;;;;;;;23.13;9.63;;;;;;;-11.27;51.62;100394.63;4781361;29;20111;-63
2024/02/11 02:43:49;;;;;;;16.93;8.63;;;;;;;-11.31;50.22;100400.13;4795977;29;20042;-63
2024/02/11 02:46:15;;;;;;;24.03;9.03;;;;;;;-11.44;49.99;100378.06;4760208;29;20039;-67
2024/02/11 02:48:41;;;;;;;24.20;8.93;;;;;;;-11.74;49.83;100374.63;4760763;29;20139;-65
2024/02/11 02:51:07;;;;;;;23.23;8.50;;;;;;;-11.83;50.96;100378.81;4780656;29;20429;-64
2024/02/11 02:53:32;;;;;;;20.07;8.83;;;;;;;-11.69;50.57;100387.56;4767917;29;20526;-62
2024/02/11 02:56:01;;;;;;;21.43;8.00;;;;;;;-11.58;50.37;100396.06;4792211;29;20053;-62
2024/02/11 02:58:28;;;;;;;18.13;8.40;;;;;;;-11.63;51.18;100403.19;4795565;29;20042;-62
2024/02/11 03:00:54;;;;;;;19.83;8.20;;;;;;;-11.92;49.87;100372.97;4795890;29;20188;-63
2024/02/11 03:03:20;;;;;;;16.43;8.07;;;;;;;-11.79;51.15;100365.78;4781405;29;20182;-61
2024/02/11 03:05:47;;;;;;;22.03;9.40;;;;;;;-11.68;51.05;100371.75;4789640;29;20039;-64
2024/02/11 03:08:13;;;;;;;22.93;9.43;;;;;;;-11.51;51.70;100374.13;4765451;29;20062;-63
2024/02/11 03:10:39;;;;;;;19.53;8.33;;;;;;;-11.62;50.33;100384.88;4792908;29;20066;-64
2024/02/11 03:13:05;;;;;;;15.63;7.40;;;;;;;-11.55;51.19;100396.34;4781337;29;20058;-63
2024/02/11 03:15:32;;;;;;;21.47;8.60;;;;;;;-11.70;50.81;100388.31;4762728;29;20464;-62
2024/02/11 03:17:58;;;;;;;22.43;9.03;;;;;;;-11.87;50.44;100397.75;4766570;29;20054;-64
2024/02/11 03:20:24;;;;;;;20.53;9.60;;;;;;;-11.95;50.19;100401.19;4778645;29;20137;-63
2024/02/11 03:22:52;;;;;;;21.87;8.60;;;;;;;-12.04;50.69;100397.91;4780840;29;20129;-63
2024/02/11 03:25:18;;;;;;;21.17;9.20;;;;;;;-12.03;51.81;100407.19;4777144;29;20564;-63
2024/02/11 03:27:47;;;;;;;21.17;10.03;;;;;;;-11.94;52.06;100394.56;4793984;29;20051;-64
2024/02/11 03:30:17;;;;;;;39.60;13.53;;;;;;;-11.89;51.03;100379.16;4780284;29;20110;-63
2024/02/11 03:32:45;;;;;;;42.73;15.60;;;;;;;-11.95;51.37;100393.66;4793303;29;20178;-64
2024/02/11 03:35:11;;;;;;;38.03;13.20;;;;;;;-12.07;51.90;100377.53;4779646;29;20042;-64
2024/02/11 03:37:38;;;;;;;41.23;13.07;;;;;;;-12.15;51.88;100380.22;4751301;29;20050;-64
2024/02/11 03:40:09;;;;;;;41.60;13.13;;;;;;;-12.00;52.56;100394.91;4775283;29;20423;-64
2024/02/11 03:42:36;;;;;;;77.73;22.40;;;;;;;-12.14;51.66;100376.09;4790937;29;20062;-63
2024/02/11 03:45:12;;;;;;;55.20;18.20;;;;;;;-12.04;51.75;100392.88;4779839;29;20116;-64
2024/02/11 03:47:39;;;;;;;48.40;15.10;;;;;;;-12.07;51.33;100400.13;4776286;29;20117;-65
2024/02/11 03:50:14;;;;;;;48.73;16.70;;;;;;;-12.12;51.71;100393.06;4779834;29;20125;-62
2024/02/11 03:52:41;;;;;;;42.57;15.33;;;;;;;-12.03;52.10;100398.03;4775304;29;20050;-64
2024/02/11 03:55:10;;;;;;;46.30;16.57;;;;;;;-11.83;52.15;100403.91;4789196;29;20533;-64
2024/02/11 03:57:40;;;;;;;35.30;12.97;;;;;;;-11.86;51.85;100363.47;4777334;29;20043;-63
2024/02/11 04:02:41;;;;;;;30.07;12.90;;;;;;;-11.89;51.55;100394.22;4780516;29;20075;-63
2024/02/11 04:05:12;;;;;;;27.97;12.10;;;;;;;-11.92;52.36;100381.38;4764345;29;20069;-64
2024/02/11 04:07:45;;;;;;;31.43;11.67;;;;;;;-11.57;52.65;100388.66;4791305;29;20506;-64
2024/02/11 04:10:19;;;;;;;24.87;10.33;;;;;;;-11.71;51.44;100379.03;4791011;29;20039;-63
2024/02/11 04:12:46;;;;;;;17.60;8.03;;;;;;;-11.79;51.88;100385.88;4764456;29;20054;-63
2024/02/11 04:15:16;;;;;;;16.73;7.90;;;;;;;-12.01;51.61;100363.00;4794722;29;20419;-63
2024/02/11 04:17:48;;;;;;;18.47;7.83;;;;;;;-11.85;53.25;100376.19;4780146;29;20074;-65
2024/02/11 04:20:24;;;;;;;16.92;7.68;;;;;;;-11.87;52.21;100372.63;4791016;29;20121;-62
2024/02/11 04:23:03;;;;;;;15.60;6.77;;;;;;;-11.73;52.53;100371.38;4790945;29;20376;-62
2024/02/11 04:25:34;;;;;;;14.20;7.17;;;;;;;-11.96;52.21;100360.16;4779711;29;20053;-64
2024/02/11 04:28:02;;;;;;;18.33;7.55;;;;;;;-11.98;52.64;100373.28;4779293;29;20134;-63
2024/02/11 04:30:29;;;;;;;17.17;7.63;;;;;;;-11.85;52.53;100381.19;4763753;29;20522;-63
2024/02/11 04:33:03;;;;;;;15.07;7.07;;;;;;;-11.85;52.00;100391.25;4779544;29;20054;-59
2024/02/11 04:35:30;;;;;;;17.60;7.03;;;;;;;-11.87;52.61;100377.66;4781455;29;20046;-61
2024/02/11 04:37:56;;;;;;;16.03;7.83;;;;;;;-11.62;52.59;100389.91;4783422;29;20167;-63
2024/02/11 04:40:26;;;;;;;14.87;6.20;;;;;;;-11.73;51.00;100383.03;4767111;29;20082;-63
2024/02/11 04:42:56;;;;;;;13.53;5.93;;;;;;;-11.96;51.93;100367.69;4794177;29;20537;-62
2024/02/11 04:45:26;;;;;;;14.33;6.97;;;;;;;-11.82;53.25;100378.06;4777325;29;20066;-63
2024/02/11 04:47:56;;;;;;;17.10;6.47;;;;;;;-11.73;52.95;100386.44;4782239;29;20051;-63
2024/02/11 04:50:22;;;;;;;13.93;6.80;;;;;;;-11.60;53.03;100368.31;4794493;29;20051;-63
2024/02/11 04:52:56;;;;;;;18.10;6.83;;;;;;;-11.54;52.43;100363.81;4766588;29;20104;-61
2024/02/11 04:55:38;;;;;;;19.53;7.00;;;;;;;-11.39;52.95;100393.56;4793045;29;20058;-62
2024/02/11 04:58:13;;;;;;;23.67;9.67;;;;;;;-11.25;53.05;100387.22;4793968;29;20047;-63
2024/02/11 05:00:40;;;;;;;16.40;6.70;;;;;;;-11.71;51.21;100358.94;4794080;29;20248;-63
2024/02/11 05:03:06;;;;;;;17.73;7.20;;;;;;;-11.46;52.12;100391.25;4794351;29;20051;-62
2024/02/11 05:05:37;;;;;;;14.97;7.83;;;;;;;-11.74;51.94;100367.09;4782205;29;20043;-63
2024/02/11 05:08:07;;;;;;;15.00;6.43;;;;;;;-11.73;52.28;100385.53;4797478;29;20533;-62
2024/02/11 05:10:39;;;;;;;15.40;6.70;;;;;;;-11.71;52.27;100387.44;4782341;29;20544;-62
2024/02/11 05:13:08;;;;;;;18.03;7.07;;;;;;;-11.72;51.54;100393.22;4782993;29;20058;-60
2024/02/11 05:15:40;;;;;;;12.33;6.83;;;;;;;-12.17;51.40;100356.59;4776657;29;20133;-63
2024/02/11 05:18:10;;;;;;;13.93;6.47;;;;;;;-11.81;52.88;100404.94;4779503;29;20577;-64
2024/02/11 05:20:38;;;;;;;18.77;7.33;;;;;;;-11.56;53.48;100405.50;4791533;29;20054;-64
2024/02/11 05:23:09;;;;;;;16.60;5.63;;;;;;;-11.58;52.25;100401.94;4779932;29;20054;-63
2024/02/11 05:25:40;;;;;;;18.85;7.55;;;;;;;-11.83;51.76;100383.84;4796583;29;20053;-65
2024/02/11 05:28:09;;;;;;;24.77;8.20;;;;;;;-12.05;52.02;100376.91;4782217;29;20051;-63
2024/02/11 05:30:42;;;;;;;28.77;8.53;;;;;;;-11.96;52.61;100382.75;4762248;29;20085;-64
2024/02/11 05:33:18;;;;;;;17.17;7.10;;;;;;;-11.95;52.62;100386.13;4782116;29;20046;-64
2024/02/11 05:35:46;;;;;;;16.87;6.80;;;;;;;-11.80;53.55;100409.22;4766771;29;20046;-65
2024/02/11 05:38:13;;;;;;;20.80;7.20;;;;;;;-11.70;53.87;100391.72;4782608;29;20609;-63
2024/02/11 05:40:41;;;;;;;29.47;10.23;;;;;;;-11.68;53.04;100384.31;4793147;29;20039;-64
2024/02/11 05:43:12;;;;;;;21.40;9.10;;;;;;;-11.43;52.93;100387.34;4767555;29;20119;-64
2024/02/11 05:45:40;;;;;;;26.00;10.13;;;;;;;-11.14;52.24;100399.09;4766260;29;20496;-66
2024/02/11 05:48:08;;;;;;;26.47;9.93;;;;;;;-10.76;52.80;100380.50;4765580;29;20112;-65
2024/02/11 05:50:34;;;;;;;28.00;10.40;;;;;;;-9.93;51.75;100381.50;4781069;29;20046;-64
2024/02/11 05:53:01;;;;;;;25.50;11.17;;;;;;;-8.86;52.97;100394.13;4782213;29;20047;-63
2024/02/11 05:55:27;;;;;;;17.45;7.85;;;;;;;-7.72;51.86;100379.09;4779712;29;20050;-63
2024/02/11 05:57:54;;;;;;;13.38;7.18;;;;;;;-6.54;51.87;100378.13;4794633;29;20039;-64
2024/02/11 06:00:24;;;;;;;17.10;8.13;;;;;;;-5.09;50.82;100362.16;4781048;29;21022;-63
2024/02/11 06:02:55;;;;;;;21.35;7.68;;;;;;;-4.02;50.19;100359.31;4781700;29;20522;-62
2024/02/11 06:05:22;;;;;;;18.20;8.55;;;;;;;-2.77;48.73;100362.00;4792751;29;20415;-64
2024/02/11 06:07:50;;;;;;;20.52;9.10;;;;;;;-2.24;47.12;100342.66;4776542;29;20058;-64
2024/02/11 06:10:18;;;;;;;24.40;10.45;;;;;;;-1.44;45.80;100337.25;4793944;29;20063;-64
2024/02/11 06:12:46;;;;;;;32.92;12.48;;;;;;;-1.77;43.58;100343.34;4777221;29;21521;-65
2024/02/11 06:15:16;;;;;;;32.67;14.68;;;;;;;-2.24;44.78;100363.06;4776372;29;20043;-63
2024/02/11 06:17:42;;;;;;;34.67;14.43;;;;;;;-2.55;44.56;100358.94;4793684;29;20043;-66
2024/02/11 06:20:13;;;;;;;42.55;16.42;;;;;;;-2.77;43.49;100360.34;4766081;29;20554;-66
2024/02/11 06:22:42;;;;;;;40.28;16.90;;;;;;;-2.84;44.64;100354.81;4794109;29;20047;-65
2024/02/11 06:25:09;;;;;;;42.63;17.98;;;;;;;-2.38;43.46;100346.19;4763712;29;20055;-65
2024/02/11 06:27:38;;;;;;;47.03;17.60;;;;;;;-2.03;43.90;100314.84;4765675;29;20440;-66
2024/02/11 06:30:08;;;;;;;36.25;15.63;;;;;;;-2.22;40.13;100353.84;4779474;29;20042;-65
2024/02/11 06:32:38;;;;;;;36.50;15.27;;;;;;;-2.97;42.72;100353.25;4763825;29;20078;-67
2024/02/11 06:35:06;;;;;;;33.08;14.13;;;;;;;-3.56;41.48;100347.47;4792280;29;20050;-64
2024/02/11 06:37:33;;;;;;;33.47;14.35;;;;;;;-3.82;42.70;100363.03;4778940;29;20078;-65
2024/02/11 06:39:59;;;;;;;35.17;15.60;;;;;;;-3.13;43.77;100361.75;4776424;29;20471;-64
2024/02/11 06:42:30;;;;;;;28.83;12.73;;;;;;;-2.44;42.93;100357.81;4751707;29;20051;-65
2024/02/11 06:44:57;;;;;;;25.85;10.82;;;;;;;-1.42;41.58;100362.06;4780745;29;20043;-65
2024/02/11 06:47:23;;;;;;;20.88;10.18;;;;;;;-0.32;40.69;100332.97;4796004;29;20058;-65
2024/02/11 06:49:49;;;;;;;21.85;9.73;;;;;;;-0.20;40.44;100336.06;4780360;29;20046;-67
2024/02/11 06:52:15;;;;;;;17.00;7.70;;;;;;;0.50;38.75;100338.97;4775365;29;20050;-66
2024/02/11 06:54:42;;;;;;;17.08;8.40;;;;;;;1.36;38.10;100345.66;4781567;29;20360;-65
2024/02/11 06:57:11;;;;;;;16.67;8.55;;;;;;;1.84;37.59;100292.63;4794965;29;20047;-67
2024/02/11 06:59:38;;;;;;;21.10;9.15;;;;;;;2.93;37.96;100341.53;4766654;29;20399;-66
2024/02/11 07:02:06;;;;;;;15.68;9.10;;;;;;;2.29;36.16;100332.63;4778721;29;20846;-68
2024/02/11 07:04:34;;;;;;;19.23;9.55;;;;;;;1.67;37.13;100338.22;4762688;29;20141;-63
2024/02/11 07:07:04;;;;;;;16.77;9.90;;;;;;;1.18;36.18;100336.47;4752070;29;20587;-67
2024/02/11 07:09:30;;;;;;;16.98;9.18;;;;;;;1.13;36.58;100335.41;4791095;29;20487;-65
2024/02/11 07:11:57;;;;;;;19.25;9.70;;;;;;;1.38;36.43;100344.03;4772969;29;20058;-66
2024/02/11 07:14:25;;;;;;;20.05;10.15;;;;;;;1.06;34.93;100341.13;4765268;29;20050;-70
2024/02/11 07:16:51;;;;;;;17.20;8.32;;;;;;;0.31;34.63;100336.47;4776317;29;20549;-69
2024/02/11 07:19:18;;;;;;;16.50;8.90;;;;;;;0.22;36.24;100337.81;4765214;29;20484;-66
2024/02/11 07:21:44;;;;;;;15.15;8.25;;;;;;;0.98;36.27;100339.97;4794967;29;20047;-70
2024/02/11 07:24:10;;;;;;;18.00;9.25;;;;;;;2.03;35.44;100315.53;4787664;29;20525;-65
2024/02/11 07:26:38;;;;;;;13.77;8.13;;;;;;;2.41;35.53;100322.78;4792717;29;20078;-67
2024/02/11 07:29:04;;;;;;;14.48;7.60;;;;;;;2.25;35.11;100329.09;4780588;29;20070;-63
2024/02/11 07:31:33;;;;;;;13.77;7.35;;;;;;;1.40;33.64;100314.19;4793659;29;20050;-66
2024/02/11 07:34:03;;;;;;;19.13;9.55;;;;;;;0.49;34.66;100296.22;4776327;29;20047;-66
2024/02/11 07:36:30;;;;;;;23.83;11.35;;;;;;;0.70;35.30;100326.06;4765868;29;20047;-67
2024/02/11 07:38:56;;;;;;;12.20;7.30;;;;;;;0.22;33.79;100308.81;4776871;29;20046;-65
2024/02/11 07:41:23;;;;;;;15.63;8.35;;;;;;;-0.14;36.03;100316.66;4772580;29;20154;-65
2024/02/11 07:43:50;;;;;;;14.32;7.88;;;;;;;-0.21;35.91;100264.38;4778908;29;20431;-67
2024/02/11 07:46:16;;;;;;;18.92;9.77;;;;;;;-0.06;35.75;100305.09;4780141;29;20047;-63
2024/02/11 07:48:45;;;;;;;14.23;7.85;;;;;;;0.02;35.24;100321.63;4791671;29;20090;-65
2024/02/11 07:51:14;;;;;;;16.67;7.45;;;;;;;0.09;35.83;100297.19;4792437;29;20448;-66
2024/02/11 07:53:41;;;;;;;13.73;7.10;;;;;;;0.28;35.68;100301.34;4766117;29;20066;-67
2024/02/11 07:56:14;;;;;;;15.15;6.35;;;;;;;0.50;35.14;100340.63;4779537;29;20170;-66
2024/02/11 07:58:42;;;;;;;10.52;6.00;;;;;;;0.75;35.25;100327.13;4751731;29;20142;-69
2024/02/11 08:01:09;;;;;;;11.65;6.70;;;;;;;2.70;35.49;100320.25;4776313;29;20054;-69
2024/02/11 08:03:35;;;;;;;11.27;6.35;;;;;;;4.27;33.01;100311.75;4767168;29;20130;-70
2024/02/11 08:06:02;;;;;;;10.93;6.05;;;;;;;5.18;33.58;100306.09;4780273;29;20058;-67
2024/02/11 08:08:29;;;;;;;12.55;6.32;;;;;;;6.09;33.79;100280.28;4775978;29;21562;-67
2024/02/11 08:10:55;;;;;;;12.70;7.32;;;;;;;6.22;30.98;100304.63;4782516;29;20208;-64
2024/02/11 08:13:21;;;;;;;13.13;7.32;;;;;;;5.28;30.53;100309.75;4768904;29;20058;-64
2024/02/11 08:15:47;;;;;;;12.90;7.13;;;;;;;5.20;32.47;100283.78;4794574;29;20419;-65
2024/02/11 08:18:14;;;;;;;11.88;6.55;;;;;;;5.25;31.53;100307.09;4795555;29;20095;-66
2024/02/11 08:20:40;;;;;;;10.18;6.05;;;;;;;4.72;30.91;100285.34;4778511;29;20046;-66
2024/02/11 08:23:06;;;;;;;10.05;5.30;;;;;;;4.15;31.20;100287.41;4778451;29;20047;-66
2024/02/11 08:25:32;;;;;;;10.35;5.88;;;;;;;4.17;30.94;100306.38;4768254;29;20043;-66
2024/02/11 08:27:58;;;;;;;10.23;5.55;;;;;;;4.80;33.26;100291.53;4768634;29;20047;-65
2024/02/11 08:30:24;;;;;;;12.18;5.88;;;;;;;5.00;32.42;100292.81;4766430;29;20414;-67
2024/02/11 08:32:51;;;;;;;10.00;5.53;;;;;;;5.43;31.41;100280.81;4794808;29;20039;-67
2024/02/11 08:35:21;;;;;;;12.27;5.82;;;;;;;5.01;30.49;100267.03;4798448;29;20150;-68
2024/02/11 08:37:48;;;;;;;7.90;5.00;;;;;;;4.73;30.53;100273.31;4796978;29;20046;-69
2024/02/11 08:40:14;;;;;;;10.05;5.05;;;;;;;5.32;31.80;100257.38;4782807;29;20047;-67
2024/02/11 08:42:41;;;;;;;13.35;5.45;;;;;;;6.37;31.28;100273.00;4783835;29;20042;-67
2024/02/11 08:45:08;;;;;;;8.57;5.43;;;;;;;6.80;30.77;100272.78;4783509;29;20879;-68
2024/02/11 08:47:36;;;;;;;12.02;5.35;;;;;;;7.50;30.19;100261.59;4765241;29;20087;-68
2024/02/11 08:50:04;;;;;;;9.52;5.78;;;;;;;6.34;29.51;100273.84;4794623;29;20096;-69
2024/02/11 08:52:31;;;;;;;10.35;5.65;;;;;;;5.79;29.50;100250.50;4780424;29;20096;-67
2024/02/11 08:54:57;;;;;;;9.93;5.32;;;;;;;4.29;29.31;100253.41;4776941;29;20070;-68
2024/02/11 08:57:26;;;;;;;11.50;6.25;;;;;;;3.70;31.22;100264.81;4797863;29;20129;-68
2024/02/11 08:59:55;;;;;;;8.98;5.90;;;;;;;3.27;30.94;100260.22;4782694;29;20074;-68
2024/02/11 09:02:25;;;;;;;11.48;6.22;;;;;;;2.57;30.44;100275.28;4783536;29;20146;-68
2024/02/11 09:04:52;;;;;;;11.93;6.43;;;;;;;1.18;32.11;100274.94;4781949;29;20494;-68
2024/02/11 09:07:20;;;;;;;12.55;6.70;;;;;;;0.04;33.18;100250.03;4794057;29;20049;-67
2024/02/11 09:09:46;;;;;;;9.40;6.07;;;;;;;0.27;34.51;100253.50;4796803;29;20422;-67
2024/02/11 09:12:13;;;;;;;9.82;5.63;;;;;;;0.17;35.30;100266.78;4795253;29;20131;-68
2024/02/11 09:14:39;;;;;;;11.93;6.25;;;;;;;-0.43;34.28;100245.56;4752707;29;20074;-67
2024/02/11 09:17:07;;;;;;;10.20;6.00;;;;;;;-0.48;35.51;100235.13;4792218;29;20806;-67
2024/02/11 09:19:33;;;;;;;12.38;6.40;;;;;;;-0.58;34.56;100232.97;4796796;29;20050;-67
2024/02/11 09:22:05;;;;;;;11.15;5.97;;;;;;;-1.03;35.08;100254.03;4776821;29;20051;-67
2024/02/11 09:24:38;;;;;;;17.25;6.25;;;;;;;-1.29;36.65;100255.38;4779737;29;20478;-68
2024/02/11 09:27:07;;;;;;;13.10;7.30;;;;;;;-1.22;37.26;100255.75;4763739;29;20141;-67
2024/02/11 09:29:34;;;;;;;12.82;5.95;;;;;;;-1.36;37.51;100233.78;4792517;29;20053;-68
2024/02/11 09:32:01;;;;;;;13.18;6.88;;;;;;;-1.28;37.60;100257.13;4779437;29;20103;-67
2024/02/11 09:34:28;;;;;;;19.63;8.25;;;;;;;-1.12;37.75;100251.94;4797972;29;20062;-69
2024/02/11 09:36:54;;;;;;;19.08;7.93;;;;;;;-1.86;36.61;100256.13;4767372;29;20163;-68
2024/02/11 09:39:20;;;;;;;14.30;7.63;;;;;;;-2.33;38.42;100256.41;4765859;29;20051;-69
2024/02/11 09:41:46;;;;;;;18.55;8.20;;;;;;;-2.63;38.17;100250.63;4782143;29;20051;-69
2024/02/11 09:44:17;;;;;;;12.27;7.32;;;;;;;-2.53;39.14;100270.66;4795474;29;20097;-67
2024/02/11 09:46:45;;;;;;;20.70;8.57;;;;;;;-2.66;39.51;100258.09;4770167;29;20058;-68
2024/02/11 09:49:16;;;;;;;15.85;7.70;;;;;;;-2.75;39.75;100249.16;4777317;29;20130;-68
2024/02/11 09:51:48;;;;;;;18.17;8.75;;;;;;;-2.34;40.11;100263.97;4793964;29;20071;-66
2024/02/11 09:54:16;;;;;;;16.30;7.80;;;;;;;-2.03;39.59;100250.19;4762079;29;20046;-69
2024/02/11 09:56:43;;;;;;;15.55;7.65;;;;;;;-1.93;39.26;100262.59;4793814;29;20047;-68
2024/02/11 09:59:15;;;;;;;19.65;8.90;;;;;;;-1.84;39.13;100263.03;4773171;29;20066;-69
2024/02/11 10:01:42;;;;;;;16.80;8.02;;;;;;;-1.88;40.22;100252.63;4782777;29;20043;-67
2024/02/11 10:04:10;;;;;;;14.93;8.10;;;;;;;-1.61;38.78;100250.50;4797326;29;20684;-69
2024/02/11 10:06:38;;;;;;;21.20;9.30;;;;;;;-1.70;38.73;100237.31;4752081;29;20046;-68
2024/02/11 10:09:06;;;;;;;14.40;8.20;;;;;;;-1.29;39.88;100251.16;4780454;29;20049;-68
2024/02/11 10:11:36;;;;;;;12.50;6.85;;;;;;;-1.27;38.55;100224.00;4797107;29;20120;-67
2024/02/11 10:14:08;;;;;;;14.65;7.07;;;;;;;-0.65;39.34;100252.28;4751976;29;20075;-67
2024/02/11 10:16:39;;;;;;;13.65;7.50;;;;;;;-0.66;39.11;100226.69;4774573;29;20042;-66
2024/02/11 10:19:06;;;;;;;16.38;7.78;;;;;;;-0.51;38.61;100234.13;4781432;29;20093;-68
2024/02/11 10:21:34;;;;;;;16.40;7.57;;;;;;;-0.49;37.83;100228.28;4794624;29;20179;-68
2024/02/11 10:24:01;;;;;;;15.68;7.80;;;;;;;-0.73;37.81;100240.00;4767700;29;20039;-68
2024/02/11 10:26:35;;;;;;;20.45;8.80;;;;;;;-1.05;37.91;100253.09;4772901;29;20047;-68
2024/02/11 10:29:05;;;;;;;16.90;9.02;;;;;;;-1.19;38.73;100242.22;4777125;29;20035;-67
2024/02/11 10:31:31;;;;;;;17.77;9.60;;;;;;;-1.33;38.95;100231.38;4776740;29;20077;-67
2024/02/11 10:33:58;;;;;;;16.92;8.65;;;;;;;-1.00;39.45;100228.63;4781365;29;20046;-67
2024/02/11 10:36:24;;;;;;;15.88;8.32;;;;;;;-1.16;38.24;100233.81;4781334;29;20057;-67
2024/02/11 10:38:54;;;;;;;16.75;9.07;;;;;;;-1.14;39.16;100234.78;4792610;29;20141;-68
2024/02/11 10:41:22;;;;;;;14.77;7.53;;;;;;;-0.96;39.71;100232.19;4780651;29;20398;-68
2024/02/11 10:43:52;;;;;;;15.65;7.63;;;;;;;-0.78;39.93;100221.91;4773545;29;20039;-67
2024/02/11 10:46:22;;;;;;;14.18;8.50;;;;;;;-0.17;39.97;100250.91;4780357;29;20051;-67
2024/02/11 10:48:48;;;;;;;16.23;8.43;;;;;;;-0.13;37.57;100247.66;4765132;29;20597;-66
2024/02/11 10:51:23;;;;;;;15.55;8.13;;;;;;;-0.32;38.43;100246.00;4796009;29;20462;-67
2024/02/11 10:53:57;;;;;;;14.07;7.95;;;;;;;-0.56;38.15;100204.94;4766806;29;20062;-66
2024/02/11 10:56:28;;;;;;;15.88;9.02;;;;;;;-0.11;38.75;100230.66;4781064;29;20128;-68
2024/02/11 10:59:27;;;;;;;16.17;8.77;;;;;;;0.09;39.87;100239.16;4793492;29;20507;-67
2024/02/11 11:01:59;;;;;;;16.17;8.63;;;;;;;0.14;38.98;100211.19;4751103;29;20051;-67
2024/02/11 11:04:26;;;;;;;15.45;8.30;;;;;;;0.17;38.65;100219.00;4766456;29;20106;-66
2024/02/11 11:06:53;;;;;;;17.58;8.73;;;;;;;-0.22;38.98;100226.81;4771189;29;20141;-69
2024/02/11 11:09:22;;;;;;;13.20;7.25;;;;;;;-0.19;39.67;100232.06;4776350;29;20043;-67
2024/02/11 11:11:50;;;;;;;19.13;9.30;;;;;;;-0.72;38.69;100234.06;4768808;29;20054;-67
2024/02/11 11:14:19;;;;;;;22.00;9.73;;;;;;;-0.93;39.52;100210.19;4774737;29;20042;-67
2024/02/11 11:16:47;;;;;;;26.13;11.85;;;;;;;-0.78;39.60;100211.69;4780609;29;20083;-71
2024/02/11 11:19:14;;;;;;;35.20;13.20;;;;;;;-1.03;39.71;100166.28;4784518;29;20213;-68